sensor_id;sensor_type;location;lat;lon;timestamp;P1;durP1;ratioP1;P2;durP2;ratioP2
50281;SDS011;36176;51.506;10.272;2022-09-23T00:00:35;5.63;;;5.13;;
50281;SDS011;36176;51.506;10.272;2022-09-23T00:03:41;6.47;;;5.87;;
50281;SDS011;36176;51.506;10.272;2022-09-23T00:11:32;5.90;;;5.27;;
50281;SDS011;36176;51.506;10.272;2022-09-23T00:34:44;4.37;;;4.07;;
50281;SDS011;36176;51.506;10.272;2022-09-23T00:37:11;6.63;;;4.53;;
50281;SDS011;36176;51.506;10.272;2022-09-23T00:39:38;4.47;;;3.90;;
50281;SDS011;36176;51.506;10.272;2022-09-23T00:42:11;7.57;;;6.97;;
50281;SDS011;36176;51.506;10.272;2022-09-23T00:47:21;7.20;;;6.70;;
50281;SDS011;36176;51.506;10.272;2022-09-23T01:09:07;4.93;;;4.53;;
50281;SDS011;36176;51.506;10.272;2022-09-23T01:11:37;4.80;;;4.40;;
50281;SDS011;36176;51.506;10.272;2022-09-23T01:22:35;5.27;;;4.10;;
50281;SDS011;36176;51.506;10.272;2022-09-23T01:36:47;3.90;;;3.60;;
50281;SDS011;36176;51.506;10.272;2022-09-23T01:39:21;3.20;;;3.00;;
50281;SDS011;36176;51.506;10.272;2022-09-23T01:41:59;4.20;;;3.90;;
50281;SDS011;36176;51.506;10.272;2022-09-23T01:48:33;4.73;;;4.33;;
50281;SDS011;36176;51.506;10.272;2022-09-23T02:23:50;3.00;;;2.80;;
50281;SDS011;36176;51.506;10.272;2022-09-23T02:29:47;3.17;;;2.90;;
50281;SDS011;36176;51.506;10.272;2022-09-23T02:35:19;3.70;;;3.43;;
50281;SDS011;36176;51.506;10.272;2022-09-23T02:48:20;2.77;;;2.57;;
50281;SDS011;36176;51.506;10.272;2022-09-23T02:51:02;4.17;;;3.77;;
50281;SDS011;36176;51.506;10.272;2022-09-23T02:53:30;4.50;;;4.20;;
50281;SDS011;36176;51.506;10.272;2022-09-23T02:56:22;4.67;;;3.23;;
50281;SDS011;36176;51.506;10.272;2022-09-23T02:58:50;3.27;;;3.07;;
50281;SDS011;36176;51.506;10.272;2022-09-23T03:01:38;2.87;;;2.67;;
50281;SDS011;36176;51.506;10.272;2022-09-23T03:07:15;3.30;;;3.00;;
50281;SDS011;36176;51.506;10.272;2022-09-23T03:09:52;7.60;;;6.90;;
50281;SDS011;36176;51.506;10.272;2022-09-23T03:18:20;5.57;;;3.70;;
50281;SDS011;36176;51.506;10.272;2022-09-23T03:20:57;3.80;;;3.37;;
50281;SDS011;36176;51.506;10.272;2022-09-23T03:23:34;2.77;;;2.57;;
50281;SDS011;36176;51.506;10.272;2022-09-23T03:26:23;4.33;;;3.63;;
50281;SDS011;36176;51.506;10.272;2022-09-23T03:29:15;3.57;;;3.27;;
50281;SDS011;36176;51.506;10.272;2022-09-23T03:31:45;3.33;;;3.03;;
50281;SDS011;36176;51.506;10.272;2022-09-23T03:34:19;3.83;;;3.53;;
50281;SDS011;36176;51.506;10.272;2022-09-23T03:36:52;3.30;;;3.00;;
50281;SDS011;36176;51.506;10.272;2022-09-23T03:39:29;5.20;;;4.70;;
50281;SDS011;36176;51.506;10.272;2022-09-23T03:42:02;4.50;;;4.10;;
50281;SDS011;36176;51.506;10.272;2022-09-23T03:44:43;3.80;;;3.40;;
50281;SDS011;36176;51.506;10.272;2022-09-23T03:47:14;3.93;;;3.63;;
50281;SDS011;36176;51.506;10.272;2022-09-23T03:49:43;3.70;;;3.40;;
50281;SDS011;36176;51.506;10.272;2022-09-23T03:52:14;5.20;;;3.40;;
50281;SDS011;36176;51.506;10.272;2022-09-23T03:54:47;5.40;;;4.90;;
50281;SDS011;36176;51.506;10.272;2022-09-23T03:57:16;5.07;;;4.60;;
50281;SDS011;36176;51.506;10.272;2022-09-23T03:59:44;4.90;;;4.50;;
50281;SDS011;36176;51.506;10.272;2022-09-23T04:02:11;7.37;;;6.67;;
50281;SDS011;36176;51.506;10.272;2022-09-23T04:04:38;5.37;;;4.87;;
50281;SDS011;36176;51.506;10.272;2022-09-23T04:07:07;4.30;;;4.00;;
50281;SDS011;36176;51.506;10.272;2022-09-23T04:09:35;6.80;;;6.20;;
50281;SDS011;36176;51.506;10.272;2022-09-23T04:12:03;4.07;;;3.67;;
50281;SDS011;36176;51.506;10.272;2022-09-23T04:14:31;6.47;;;5.33;;
50281;SDS011;36176;51.506;10.272;2022-09-23T04:16:58;3.53;;;3.23;;
50281;SDS011;36176;51.506;10.272;2022-09-23T04:19:28;4.87;;;4.07;;
50281;SDS011;36176;51.506;10.272;2022-09-23T04:21:55;4.20;;;3.80;;
50281;SDS011;36176;51.506;10.272;2022-09-23T04:24:23;4.30;;;3.90;;
50281;SDS011;36176;51.506;10.272;2022-09-23T04:26:51;4.87;;;4.47;;
50281;SDS011;36176;51.506;10.272;2022-09-23T04:29:19;4.23;;;3.83;;
50281;SDS011;36176;51.506;10.272;2022-09-23T04:31:47;5.37;;;4.20;;
50281;SDS011;36176;51.506;10.272;2022-09-23T04:34:14;4.43;;;4.03;;
50281;SDS011;36176;51.506;10.272;2022-09-23T04:36:43;4.43;;;4.03;;
50281;SDS011;36176;51.506;10.272;2022-09-23T04:39:12;3.60;;;3.17;;
50281;SDS011;36176;51.506;10.272;2022-09-23T04:41:41;5.97;;;5.40;;
50281;SDS011;36176;51.506;10.272;2022-09-23T04:44:15;4.07;;;3.67;;
50281;SDS011;36176;51.506;10.272;2022-09-23T04:46:43;4.37;;;3.60;;
50281;SDS011;36176;51.506;10.272;2022-09-23T04:49:14;4.33;;;3.93;;
50281;SDS011;36176;51.506;10.272;2022-09-23T04:51:45;6.07;;;5.53;;
50281;SDS011;36176;51.506;10.272;2022-09-23T04:54:13;3.77;;;3.47;;
50281;SDS011;36176;51.506;10.272;2022-09-23T04:56:40;3.37;;;3.07;;
50281;SDS011;36176;51.506;10.272;2022-09-23T04:59:08;5.83;;;5.33;;
50281;SDS011;36176;51.506;10.272;2022-09-23T05:01:35;8.57;;;7.77;;
50281;SDS011;36176;51.506;10.272;2022-09-23T05:04:04;4.53;;;3.70;;
50281;SDS011;36176;51.506;10.272;2022-09-23T05:06:34;3.43;;;3.23;;
50281;SDS011;36176;51.506;10.272;2022-09-23T05:09:03;4.00;;;3.70;;
50281;SDS011;36176;51.506;10.272;2022-09-23T05:11:32;3.60;;;3.37;;
50281;SDS011;36176;51.506;10.272;2022-09-23T05:14:06;5.43;;;2.80;;
50281;SDS011;36176;51.506;10.272;2022-09-23T05:16:33;7.83;;;7.03;;
50281;SDS011;36176;51.506;10.272;2022-09-23T05:19:01;5.70;;;5.20;;
50281;SDS011;36176;51.506;10.272;2022-09-23T05:21:29;4.33;;;4.03;;
50281;SDS011;36176;51.506;10.272;2022-09-23T05:23:57;7.07;;;5.87;;
50281;SDS011;36176;51.506;10.272;2022-09-23T05:26:30;7.20;;;4.70;;
50281;SDS011;36176;51.506;10.272;2022-09-23T05:28:58;4.20;;;3.90;;
50281;SDS011;36176;51.506;10.272;2022-09-23T05:31:27;3.40;;;3.10;;
50281;SDS011;36176;51.506;10.272;2022-09-23T05:33:56;4.43;;;3.40;;
50281;SDS011;36176;51.506;10.272;2022-09-23T05:36:25;4.53;;;4.13;;
50281;SDS011;36176;51.506;10.272;2022-09-23T05:38:55;8.67;;;6.00;;
50281;SDS011;36176;51.506;10.272;2022-09-23T05:41:23;4.53;;;4.13;;
50281;SDS011;36176;51.506;10.272;2022-09-23T05:43:53;3.97;;;3.00;;
50281;SDS011;36176;51.506;10.272;2022-09-23T05:46:22;5.07;;;4.37;;
50281;SDS011;36176;51.506;10.272;2022-09-23T05:48:52;3.20;;;2.80;;
50281;SDS011;36176;51.506;10.272;2022-09-23T05:51:27;3.93;;;3.60;;
50281;SDS011;36176;51.506;10.272;2022-09-23T05:53:57;5.33;;;4.80;;
50281;SDS011;36176;51.506;10.272;2022-09-23T05:56:26;6.00;;;3.70;;
50281;SDS011;36176;51.506;10.272;2022-09-23T05:58:55;5.33;;;4.67;;
50281;SDS011;36176;51.506;10.272;2022-09-23T06:01:24;4.27;;;3.90;;
50281;SDS011;36176;51.506;10.272;2022-09-23T06:03:54;4.70;;;2.97;;
50281;SDS011;36176;51.506;10.272;2022-09-23T06:06:25;5.33;;;4.93;;
50281;SDS011;36176;51.506;10.272;2022-09-23T06:08:54;6.73;;;6.07;;
50281;SDS011;36176;51.506;10.272;2022-09-23T06:11:22;4.27;;;3.97;;
50281;SDS011;36176;51.506;10.272;2022-09-23T06:13:52;9.90;;;5.97;;
50281;SDS011;36176;51.506;10.272;2022-09-23T06:16:20;4.70;;;4.30;;
50281;SDS011;36176;51.506;10.272;2022-09-23T06:18:48;8.07;;;6.10;;
50281;SDS011;36176;51.506;10.272;2022-09-23T06:21:15;6.83;;;4.20;;
50281;SDS011;36176;51.506;10.272;2022-09-23T06:23:43;10.07;;;6.17;;
50281;SDS011;36176;51.506;10.272;2022-09-23T06:26:13;5.03;;;4.43;;
50281;SDS011;36176;51.506;10.272;2022-09-23T06:28:42;9.70;;;6.70;;
50281;SDS011;36176;51.506;10.272;2022-09-23T06:31:14;14.17;;;4.90;;
50281;SDS011;36176;51.506;10.272;2022-09-23T06:33:43;11.93;;;6.30;;
50281;SDS011;36176;51.506;10.272;2022-09-23T06:36:11;7.10;;;3.60;;
50281;SDS011;36176;51.506;10.272;2022-09-23T06:38:56;9.03;;;5.63;;
50281;SDS011;36176;51.506;10.272;2022-09-23T06:41:23;9.10;;;6.93;;
50281;SDS011;36176;51.506;10.272;2022-09-23T06:43:51;7.83;;;5.90;;
50281;SDS011;36176;51.506;10.272;2022-09-23T06:46:18;13.47;;;11.00;;
50281;SDS011;36176;51.506;10.272;2022-09-23T06:48:46;15.87;;;9.83;;
50281;SDS011;36176;51.506;10.272;2022-09-23T06:51:14;12.37;;;11.13;;
50281;SDS011;36176;51.506;10.272;2022-09-23T06:53:45;12.73;;;9.80;;
50281;SDS011;36176;51.506;10.272;2022-09-23T06:56:16;10.10;;;7.67;;
50281;SDS011;36176;51.506;10.272;2022-09-23T06:58:45;10.70;;;6.60;;
50281;SDS011;36176;51.506;10.272;2022-09-23T07:01:13;7.97;;;6.57;;
50281;SDS011;36176;51.506;10.272;2022-09-23T07:03:43;10.63;;;7.57;;
50281;SDS011;36176;51.506;10.272;2022-09-23T07:06:13;7.07;;;6.03;;
50281;SDS011;36176;51.506;10.272;2022-09-23T07:08:44;11.50;;;10.47;;
50281;SDS011;36176;51.506;10.272;2022-09-23T07:11:16;7.67;;;5.30;;
50281;SDS011;36176;51.506;10.272;2022-09-23T07:13:48;7.23;;;5.97;;
50281;SDS011;36176;51.506;10.272;2022-09-23T07:16:15;7.27;;;5.50;;
50281;SDS011;36176;51.506;10.272;2022-09-23T07:18:42;6.13;;;5.50;;
50281;SDS011;36176;51.506;10.272;2022-09-23T07:21:12;8.40;;;5.30;;
50281;SDS011;36176;51.506;10.272;2022-09-23T07:23:42;6.67;;;5.50;;
50281;SDS011;36176;51.506;10.272;2022-09-23T07:26:30;6.47;;;5.87;;
50281;SDS011;36176;51.506;10.272;2022-09-23T07:29:00;8.20;;;5.23;;
50281;SDS011;36176;51.506;10.272;2022-09-23T07:31:31;8.10;;;5.10;;
50281;SDS011;36176;51.506;10.272;2022-09-23T07:34:06;7.37;;;6.67;;
50281;SDS011;36176;51.506;10.272;2022-09-23T07:36:37;6.03;;;5.43;;
50281;SDS011;36176;51.506;10.272;2022-09-23T07:39:10;6.60;;;4.53;;
50281;SDS011;36176;51.506;10.272;2022-09-23T07:41:38;10.00;;;5.10;;
50281;SDS011;36176;51.506;10.272;2022-09-23T07:44:08;5.93;;;5.33;;
50281;SDS011;36176;51.506;10.272;2022-09-23T07:46:36;4.77;;;3.90;;
50281;SDS011;36176;51.506;10.272;2022-09-23T07:49:04;6.93;;;4.40;;
50281;SDS011;36176;51.506;10.272;2022-09-23T07:51:36;6.23;;;4.10;;
50281;SDS011;36176;51.506;10.272;2022-09-23T07:54:05;5.60;;;3.97;;
50281;SDS011;36176;51.506;10.272;2022-09-23T07:56:35;5.70;;;3.23;;
50281;SDS011;36176;51.506;10.272;2022-09-23T07:59:04;4.23;;;2.90;;
50281;SDS011;36176;51.506;10.272;2022-09-23T08:01:38;4.57;;;2.93;;
50281;SDS011;36176;51.506;10.272;2022-09-23T08:04:12;3.33;;;2.83;;
50281;SDS011;36176;51.506;10.272;2022-09-23T08:06:52;2.60;;;2.07;;
50281;SDS011;36176;51.506;10.272;2022-09-23T08:09:28;4.50;;;2.20;;
50281;SDS011;36176;51.506;10.272;2022-09-23T08:11:58;2.40;;;2.20;;
50281;SDS011;36176;51.506;10.272;2022-09-23T08:14:45;3.93;;;3.07;;
50281;SDS011;36176;51.506;10.272;2022-09-23T08:17:12;3.70;;;3.23;;
50281;SDS011;36176;51.506;10.272;2022-09-23T08:19:39;4.00;;;2.50;;
50281;SDS011;36176;51.506;10.272;2022-09-23T08:22:07;4.30;;;2.50;;
50281;SDS011;36176;51.506;10.272;2022-09-23T08:24:34;3.83;;;2.30;;
50281;SDS011;36176;51.506;10.272;2022-09-23T08:27:01;4.70;;;2.90;;
50281;SDS011;36176;51.506;10.272;2022-09-23T08:29:28;4.50;;;2.50;;
50281;SDS011;36176;51.506;10.272;2022-09-23T08:31:55;2.33;;;2.03;;
50281;SDS011;36176;51.506;10.272;2022-09-23T08:34:25;4.03;;;1.97;;
50281;SDS011;36176;51.506;10.272;2022-09-23T08:36:53;2.83;;;1.80;;
50281;SDS011;36176;51.506;10.272;2022-09-23T08:39:21;3.00;;;1.70;;
50281;SDS011;36176;51.506;10.272;2022-09-23T08:49:47;3.10;;;1.70;;
50281;SDS011;36176;51.506;10.272;2022-09-23T08:52:30;3.40;;;1.80;;
50281;SDS011;36176;51.506;10.272;2022-09-23T08:55:02;1.70;;;1.60;;
50281;SDS011;36176;51.506;10.272;2022-09-23T09:00:54;1.75;;;1.40;;
50281;SDS011;36176;51.506;10.272;2022-09-23T09:03:47;2.88;;;1.70;;
50281;SDS011;36176;51.506;10.272;2022-09-23T09:06:17;1.70;;;1.60;;
50281;SDS011;36176;51.506;10.272;2022-09-23T09:09:21;3.35;;;1.70;;
50281;SDS011;36176;51.506;10.272;2022-09-23T09:15:04;2.80;;;1.80;;
50281;SDS011;36176;51.506;10.272;2022-09-23T09:18:03;1.70;;;1.60;;
50281;SDS011;36176;51.506;10.272;2022-09-23T09:20:47;1.63;;;1.52;;
50281;SDS011;36176;51.506;10.272;2022-09-23T09:23:30;2.35;;;1.30;;
50281;SDS011;36176;51.506;10.272;2022-09-23T09:26:08;1.98;;;1.50;;
50281;SDS011;36176;51.506;10.272;2022-09-23T09:28:45;2.47;;;1.40;;
50281;SDS011;36176;51.506;10.272;2022-09-23T09:31:28;1.33;;;1.23;;
50281;SDS011;36176;51.506;10.272;2022-09-23T09:34:05;2.15;;;2.00;;
50281;SDS011;36176;51.506;10.272;2022-09-23T09:39:39;3.17;;;1.35;;
50281;SDS011;36176;51.506;10.272;2022-09-23T09:42:08;1.42;;;1.30;;
50281;SDS011;36176;51.506;10.272;2022-09-23T09:44:54;2.28;;;1.35;;
50281;SDS011;36176;51.506;10.272;2022-09-23T09:50:13;2.63;;;2.08;;
50281;SDS011;36176;51.506;10.272;2022-09-23T09:52:47;1.52;;;1.30;;
50281;SDS011;36176;51.506;10.272;2022-09-23T09:55:27;1.60;;;1.48;;
50281;SDS011;36176;51.506;10.272;2022-09-23T09:58:05;2.67;;;1.60;;
50281;SDS011;36176;51.506;10.272;2022-09-23T10:00:35;2.08;;;1.92;;
50281;SDS011;36176;51.506;10.272;2022-09-23T10:05:52;3.42;;;2.42;;
50281;SDS011;36176;51.506;10.272;2022-09-23T10:08:25;1.40;;;1.30;;
50281;SDS011;36176;51.506;10.272;2022-09-23T10:11:13;2.17;;;1.30;;
50281;SDS011;36176;51.506;10.272;2022-09-23T10:16:41;2.05;;;1.30;;
50281;SDS011;36176;51.506;10.272;2022-09-23T10:19:30;1.40;;;1.30;;
50281;SDS011;36176;51.506;10.272;2022-09-23T10:21:58;1.40;;;1.30;;
50281;SDS011;36176;51.506;10.272;2022-09-23T10:24:31;2.42;;;1.40;;
50281;SDS011;36176;51.506;10.272;2022-09-23T10:27:05;1.73;;;1.33;;
50281;SDS011;36176;51.506;10.272;2022-09-23T10:29:49;1.50;;;1.40;;
50281;SDS011;36176;51.506;10.272;2022-09-23T10:35:39;2.35;;;1.40;;
50281;SDS011;36176;51.506;10.272;2022-09-23T10:38:23;1.52;;;1.42;;
50281;SDS011;36176;51.506;10.272;2022-09-23T10:40:50;1.40;;;1.30;;
50281;SDS011;36176;51.506;10.272;2022-09-23T10:58:53;4.55;;;1.60;;
50281;SDS011;36176;51.506;10.272;2022-09-23T11:01:35;2.20;;;1.55;;
50281;SDS011;36176;51.506;10.272;2022-09-23T11:13:34;2.58;;;1.73;;
50281;SDS011;36176;51.506;10.272;2022-09-23T11:24:18;1.58;;;1.20;;
50281;SDS011;36176;51.506;10.272;2022-09-23T11:37:34;1.85;;;1.20;;
50281;SDS011;36176;51.506;10.272;2022-09-23T11:56:47;1.30;;;1.20;;
50281;SDS011;36176;51.506;10.272;2022-09-23T12:03:33;3.15;;;1.30;;
50281;SDS011;36176;51.506;10.272;2022-09-23T12:10:21;1.90;;;1.33;;
50281;SDS011;36176;51.506;10.272;2022-09-23T12:15:44;2.15;;;1.20;;
50281;SDS011;36176;51.506;10.272;2022-09-23T12:27:07;1.40;;;1.30;;
50281;SDS011;36176;51.506;10.272;2022-09-23T12:29:47;1.38;;;1.27;;
50281;SDS011;36176;51.506;10.272;2022-09-23T12:32:20;1.27;;;1.17;;
50281;SDS011;36176;51.506;10.272;2022-09-23T12:34:58;3.15;;;1.50;;
50281;SDS011;36176;51.506;10.272;2022-09-23T12:37:32;1.50;;;1.40;;
50281;SDS011;36176;51.506;10.272;2022-09-23T12:40:06;3.10;;;2.45;;
50281;SDS011;36176;51.506;10.272;2022-09-23T12:42:42;1.20;;;1.10;;
50281;SDS011;36176;51.506;10.272;2022-09-23T12:45:55;1.20;;;1.10;;
50281;SDS011;36176;51.506;10.272;2022-09-23T12:57:13;1.40;;;1.17;;
50281;SDS011;36176;51.506;10.272;2022-09-23T13:01:55;1.67;;;1.40;;
50281;SDS011;36176;51.506;10.272;2022-09-23T13:07:32;1.25;;;1.10;;
50281;SDS011;36176;51.506;10.272;2022-09-23T13:12:58;2.65;;;1.20;;
50281;SDS011;36176;51.506;10.272;2022-09-23T13:15:46;1.77;;;1.40;;
50281;SDS011;36176;51.506;10.272;2022-09-23T13:20:45;1.30;;;1.20;;
50281;SDS011;36176;51.506;10.272;2022-09-23T13:25:52;1.40;;;1.30;;
50281;SDS011;36176;51.506;10.272;2022-09-23T13:28:24;1.27;;;1.20;;
50281;SDS011;36176;51.506;10.272;2022-09-23T13:31:11;1.45;;;1.25;;
50281;SDS011;36176;51.506;10.272;2022-09-23T13:34:02;1.20;;;1.10;;
50281;SDS011;36176;51.506;10.272;2022-09-23T13:36:41;1.63;;;1.10;;
50281;SDS011;36176;51.506;10.272;2022-09-23T13:39:23;1.30;;;1.20;;
50281;SDS011;36176;51.506;10.272;2022-09-23T13:41:53;1.70;;;1.35;;
50281;SDS011;36176;51.506;10.272;2022-09-23T13:44:26;1.15;;;1.05;;
50281;SDS011;36176;51.506;10.272;2022-09-23T13:46:56;1.50;;;1.40;;
50281;SDS011;36176;51.506;10.272;2022-09-23T13:49:26;2.67;;;1.25;;
50281;SDS011;36176;51.506;10.272;2022-09-23T13:51:58;1.50;;;1.40;;
50281;SDS011;36176;51.506;10.272;2022-09-23T13:54:28;1.30;;;1.20;;
50281;SDS011;36176;51.506;10.272;2022-09-23T13:56:55;1.60;;;1.20;;
50281;SDS011;36176;51.506;10.272;2022-09-23T13:59:24;1.65;;;1.40;;
50281;SDS011;36176;51.506;10.272;2022-09-23T14:02:04;2.55;;;1.10;;
50281;SDS011;36176;51.506;10.272;2022-09-23T14:04:36;1.63;;;1.13;;
50281;SDS011;36176;51.506;10.272;2022-09-23T14:07:05;1.20;;;1.10;;
50281;SDS011;36176;51.506;10.272;2022-09-23T14:09:33;1.50;;;1.40;;
50281;SDS011;36176;51.506;10.272;2022-09-23T14:12:04;3.50;;;1.27;;
50281;SDS011;36176;51.506;10.272;2022-09-23T14:14:40;2.28;;;1.20;;
50281;SDS011;36176;51.506;10.272;2022-09-23T14:17:12;1.52;;;1.40;;
50281;SDS011;36176;51.506;10.272;2022-09-23T14:19:44;2.03;;;1.48;;
50281;SDS011;36176;51.506;10.272;2022-09-23T14:22:25;2.10;;;1.30;;
50281;SDS011;36176;51.506;10.272;2022-09-23T14:24:55;1.92;;;1.40;;
50281;SDS011;36176;51.506;10.272;2022-09-23T14:27:34;1.60;;;1.27;;
50281;SDS011;36176;51.506;10.272;2022-09-23T14:30:05;1.30;;;1.10;;
50281;SDS011;36176;51.506;10.272;2022-09-23T14:32:39;1.30;;;1.17;;
50281;SDS011;36176;51.506;10.272;2022-09-23T14:37:51;1.20;;;1.20;;
50281;SDS011;36176;51.506;10.272;2022-09-23T14:40:56;2.85;;;1.30;;
50281;SDS011;36176;51.506;10.272;2022-09-23T14:43:48;1.58;;;1.40;;
50281;SDS011;36176;51.506;10.272;2022-09-23T14:46:26;1.63;;;1.48;;
50281;SDS011;36176;51.506;10.272;2022-09-23T14:49:04;2.10;;;1.77;;
50281;SDS011;36176;51.506;10.272;2022-09-23T15:00:34;1.80;;;1.52;;
50281;SDS011;36176;51.506;10.272;2022-09-23T15:02:42;1.42;;;1.33;;
50281;SDS011;36176;51.506;10.272;2022-09-23T15:05:15;2.42;;;1.83;;
50281;SDS011;36176;51.506;10.272;2022-09-23T15:07:50;1.77;;;1.40;;
50281;SDS011;36176;51.506;10.272;2022-09-23T15:10:22;1.50;;;1.40;;
50281;SDS011;36176;51.506;10.272;2022-09-23T15:12:53;1.95;;;1.50;;
50281;SDS011;36176;51.506;10.272;2022-09-23T15:15:29;2.60;;;1.50;;
50281;SDS011;36176;51.506;10.272;2022-09-23T15:18:01;2.53;;;2.30;;
50281;SDS011;36176;51.506;10.272;2022-09-23T15:20:55;5.50;;;5.00;;
50281;SDS011;36176;51.506;10.272;2022-09-23T15:24:00;3.87;;;3.50;;
50281;SDS011;36176;51.506;10.272;2022-09-23T15:26:42;2.53;;;2.30;;
50281;SDS011;36176;51.506;10.272;2022-09-23T15:29:13;1.93;;;1.60;;
50281;SDS011;36176;51.506;10.272;2022-09-23T15:31:40;1.73;;;1.63;;
50281;SDS011;36176;51.506;10.272;2022-09-23T15:34:08;1.80;;;1.70;;
50281;SDS011;36176;51.506;10.272;2022-09-23T15:36:36;2.13;;;1.67;;
50281;SDS011;36176;51.506;10.272;2022-09-23T15:39:04;2.87;;;1.60;;
50281;SDS011;36176;51.506;10.272;2022-09-23T15:41:35;2.00;;;1.45;;
50281;SDS011;36176;51.506;10.272;2022-09-23T15:44:16;1.60;;;1.50;;
50281;SDS011;36176;51.506;10.272;2022-09-23T15:46:47;1.60;;;1.50;;
50281;SDS011;36176;51.506;10.272;2022-09-23T15:52:08;1.55;;;1.45;;
50281;SDS011;36176;51.506;10.272;2022-09-23T15:54:36;1.55;;;1.27;;
50281;SDS011;36176;51.506;10.272;2022-09-23T15:57:03;1.58;;;1.48;;
50281;SDS011;36176;51.506;10.272;2022-09-23T15:59:30;2.03;;;1.42;;
50281;SDS011;36176;51.506;10.272;2022-09-23T16:01:59;3.60;;;1.45;;
50281;SDS011;36176;51.506;10.272;2022-09-23T16:04:32;1.73;;;1.60;;
50281;SDS011;36176;51.506;10.272;2022-09-23T16:06:59;2.03;;;1.50;;
50281;SDS011;36176;51.506;10.272;2022-09-23T16:09:27;3.30;;;1.48;;
50281;SDS011;36176;51.506;10.272;2022-09-23T16:11:57;5.60;;;1.60;;
50281;SDS011;36176;51.506;10.272;2022-09-23T16:14:30;2.70;;;1.40;;
50281;SDS011;36176;51.506;10.272;2022-09-23T16:16:57;1.87;;;1.50;;
50281;SDS011;36176;51.506;10.272;2022-09-23T16:19:24;1.60;;;1.50;;
50281;SDS011;36176;51.506;10.272;2022-09-23T16:21:51;3.30;;;2.03;;
50281;SDS011;36176;51.506;10.272;2022-09-23T16:24:18;3.60;;;1.70;;
50281;SDS011;36176;51.506;10.272;2022-09-23T16:26:51;3.30;;;1.90;;
50281;SDS011;36176;51.506;10.272;2022-09-23T16:29:18;3.40;;;1.87;;
50281;SDS011;36176;51.506;10.272;2022-09-23T16:31:46;1.77;;;1.67;;
50281;SDS011;36176;51.506;10.272;2022-09-23T16:34:13;2.90;;;1.70;;
50281;SDS011;36176;51.506;10.272;2022-09-23T16:36:40;3.63;;;1.87;;
50281;SDS011;36176;51.506;10.272;2022-09-23T16:39:09;2.63;;;2.33;;
50281;SDS011;36176;51.506;10.272;2022-09-23T16:41:38;3.77;;;1.73;;
50281;SDS011;36176;51.506;10.272;2022-09-23T16:44:18;2.10;;;1.77;;
50281;SDS011;36176;51.506;10.272;2022-09-23T16:46:46;3.93;;;1.87;;
50281;SDS011;36176;51.506;10.272;2022-09-23T16:49:13;2.90;;;2.47;;
50281;SDS011;36176;51.506;10.272;2022-09-23T16:51:40;1.93;;;1.70;;
50281;SDS011;36176;51.506;10.272;2022-09-23T16:54:08;3.20;;;2.07;;
50281;SDS011;36176;51.506;10.272;2022-09-23T16:56:40;2.80;;;2.57;;
50281;SDS011;36176;51.506;10.272;2022-09-23T16:59:12;2.53;;;1.77;;
50281;SDS011;36176;51.506;10.272;2022-09-23T17:01:40;2.80;;;2.60;;
50281;SDS011;36176;51.506;10.272;2022-09-23T17:04:26;3.13;;;2.30;;
50281;SDS011;36176;51.506;10.272;2022-09-23T17:06:53;4.27;;;3.87;;
50281;SDS011;36176;51.506;10.272;2022-09-23T17:09:22;6.60;;;6.00;;
50281;SDS011;36176;51.506;10.272;2022-09-23T17:14:41;7.93;;;6.80;;
50281;SDS011;36176;51.506;10.272;2022-09-23T17:17:09;30.00;;;19.87;;
50281;SDS011;36176;51.506;10.272;2022-09-23T17:19:36;19.90;;;16.23;;
50281;SDS011;36176;51.506;10.272;2022-09-23T17:22:04;27.27;;;18.80;;
50281;SDS011;36176;51.506;10.272;2022-09-23T17:24:31;18.33;;;16.40;;
50281;SDS011;36176;51.506;10.272;2022-09-23T17:26:58;34.33;;;26.40;;
50281;SDS011;36176;51.506;10.272;2022-09-23T17:29:25;48.17;;;37.63;;
50281;SDS011;36176;51.506;10.272;2022-09-23T17:31:52;38.90;;;31.77;;
50281;SDS011;36176;51.506;10.272;2022-09-23T17:34:20;22.63;;;17.63;;
50281;SDS011;36176;51.506;10.272;2022-09-23T17:36:47;18.57;;;16.40;;
50281;SDS011;36176;51.506;10.272;2022-09-23T17:39:14;19.83;;;17.57;;
50281;SDS011;36176;51.506;10.272;2022-09-23T17:41:42;14.27;;;11.57;;
50281;SDS011;36176;51.506;10.272;2022-09-23T17:44:11;7.50;;;6.83;;
50281;SDS011;36176;51.506;10.272;2022-09-23T17:46:38;4.00;;;3.70;;
50281;SDS011;36176;51.506;10.272;2022-09-23T17:49:05;4.63;;;4.33;;
50281;SDS011;36176;51.506;10.272;2022-09-23T17:51:34;3.87;;;3.50;;
50281;SDS011;36176;51.506;10.272;2022-09-23T17:54:01;4.47;;;3.10;;
50281;SDS011;36176;51.506;10.272;2022-09-23T17:56:29;4.33;;;4.03;;
50281;SDS011;36176;51.506;10.272;2022-09-23T17:58:58;9.30;;;7.37;;
50281;SDS011;36176;51.506;10.272;2022-09-23T18:01:27;11.97;;;10.67;;
50281;SDS011;36176;51.506;10.272;2022-09-23T18:06:27;8.47;;;7.00;;
50281;SDS011;36176;51.506;10.272;2022-09-23T18:08:58;6.20;;;5.40;;
50281;SDS011;36176;51.506;10.272;2022-09-23T18:11:33;5.10;;;4.70;;
50281;SDS011;36176;51.506;10.272;2022-09-23T18:14:15;8.00;;;7.40;;
50281;SDS011;36176;51.506;10.272;2022-09-23T18:16:45;4.37;;;4.07;;
50281;SDS011;36176;51.506;10.272;2022-09-23T18:19:15;3.83;;;3.50;;
50281;SDS011;36176;51.506;10.272;2022-09-23T18:21:47;7.67;;;7.00;;
50281;SDS011;36176;51.506;10.272;2022-09-23T18:24:17;17.17;;;11.97;;
50281;SDS011;36176;51.506;10.272;2022-09-23T18:27:00;12.20;;;11.03;;
50281;SDS011;36176;51.506;10.272;2022-09-23T18:29:27;22.63;;;20.10;;
50281;SDS011;36176;51.506;10.272;2022-09-23T18:31:55;20.30;;;17.80;;
50281;SDS011;36176;51.506;10.272;2022-09-23T18:34:22;12.53;;;10.40;;
50281;SDS011;36176;51.506;10.272;2022-09-23T18:36:50;12.73;;;11.73;;
50281;SDS011;36176;51.506;10.272;2022-09-23T18:39:17;7.63;;;6.93;;
50281;SDS011;36176;51.506;10.272;2022-09-23T18:41:44;6.00;;;5.40;;
50281;SDS011;36176;51.506;10.272;2022-09-23T18:44:11;5.77;;;5.00;;
50281;SDS011;36176;51.506;10.272;2022-09-23T18:46:38;4.47;;;3.80;;
50281;SDS011;36176;51.506;10.272;2022-09-23T18:49:05;3.90;;;3.60;;
50281;SDS011;36176;51.506;10.272;2022-09-23T18:51:55;3.80;;;3.47;;
50281;SDS011;36176;51.506;10.272;2022-09-23T18:54:24;3.10;;;2.80;;
50281;SDS011;36176;51.506;10.272;2022-09-23T18:56:53;5.43;;;5.07;;
50281;SDS011;36176;51.506;10.272;2022-09-23T18:59:22;4.90;;;4.60;;
50281;SDS011;36176;51.506;10.272;2022-09-23T19:01:51;3.20;;;3.00;;
50281;SDS011;36176;51.506;10.272;2022-09-23T19:04:21;3.27;;;2.97;;
50281;SDS011;36176;51.506;10.272;2022-09-23T19:06:50;6.73;;;6.17;;
50281;SDS011;36176;51.506;10.272;2022-09-23T19:09:17;3.70;;;3.40;;
50281;SDS011;36176;51.506;10.272;2022-09-23T19:11:45;3.83;;;3.57;;
50281;SDS011;36176;51.506;10.272;2022-09-23T19:14:24;5.73;;;5.40;;
50281;SDS011;36176;51.506;10.272;2022-09-23T19:16:52;3.53;;;3.27;;
50281;SDS011;36176;51.506;10.272;2022-09-23T19:19:19;4.57;;;4.27;;
50281;SDS011;36176;51.506;10.272;2022-09-23T19:21:46;6.50;;;5.93;;
50281;SDS011;36176;51.506;10.272;2022-09-23T19:24:13;6.73;;;6.13;;
50281;SDS011;36176;51.506;10.272;2022-09-23T19:26:45;6.50;;;6.07;;
50281;SDS011;36176;51.506;10.272;2022-09-23T19:29:13;6.10;;;5.60;;
50281;SDS011;36176;51.506;10.272;2022-09-23T19:31:41;4.47;;;3.40;;
50281;SDS011;36176;51.506;10.272;2022-09-23T19:34:13;5.80;;;5.40;;
50281;SDS011;36176;51.506;10.272;2022-09-23T19:36:43;4.13;;;3.83;;
50281;SDS011;36176;51.506;10.272;2022-09-23T19:41:43;3.63;;;2.90;;
50281;SDS011;36176;51.506;10.272;2022-09-23T19:44:12;2.97;;;2.77;;
50281;SDS011;36176;51.506;10.272;2022-09-23T19:46:40;5.33;;;3.30;;